sensor_id;sensor_type;location;lat;lon;timestamp;pressure;altitude;pressure_sealevel;temperature;humidity
68758;BME280;55747;51.998;4.466;2023-04-02T00:07:40;56746.63;;;-144.48;100.00
68758;BME280;55747;51.998;4.466;2023-04-02T00:10:23;56748.69;;;-144.48;100.00
68758;BME280;55747;51.998;4.466;2023-04-02T00:12:58;56750.75;;;-144.48;100.00
68758;BME280;55747;51.998;4.466;2023-04-02T00:15:23;56781.78;;;-144.48;100.00
68758;BME280;55747;51.998;4.466;2023-04-02T00:17:51;56775.56;;;-144.48;100.00
68758;BME280;55747;51.998;4.466;2023-04-02T00:20:16;56769.38;;;-144.48;100.00
68758;BME280;55747;51.998;4.466;2023-04-02T00:22:44;56775.56;;;-144.48;100.00
68758;BME280;55747;51.998;4.466;2023-04-02T00:25:11;56773.50;;;-144.48;100.00
68758;BME280;55747;51.998;4.466;2023-04-02T00:27:37;56767.31;;;-144.48;100.00
68758;BME280;55747;51.998;4.466;2023-04-02T00:30:03;56814.84;;;-144.48;100.00
68758;BME280;55747;51.998;4.466;2023-04-02T00:32:31;56779.72;;;-144.48;100.00
68758;BME280;55747;51.998;4.466;2023-04-02T00:34:58;56785.91;;;-144.48;100.00
68758;BME280;55747;51.998;4.466;2023-04-02T00:37:24;56798.31;;;-144.48;100.00
68758;BME280;55747;51.998;4.466;2023-04-02T00:39:54;56787.97;;;-144.48;100.00
68758;BME280;55747;51.998;4.466;2023-04-02T00:42:21;56794.19;;;-144.48;100.00
68758;BME280;55747;51.998;4.466;2023-04-02T00:44:49;56752.81;;;-144.48;100.00
68758;BME280;55747;51.998;4.466;2023-04-02T00:47:22;56783.84;;;-144.48;100.00
68758;BME280;55747;51.998;4.466;2023-04-02T00:49:49;56775.56;;;-144.48;100.00
68758;BME280;55747;51.998;4.466;2023-04-02T00:52:16;56744.56;;;-144.48;100.00
68758;BME280;55747;51.998;4.466;2023-04-02T00:54:44;56787.97;;;-144.48;100.00
68758;BME280;55747;51.998;4.466;2023-04-02T00:57:20;56771.44;;;-144.48;100.00
68758;BME280;55747;51.998;4.466;2023-04-02T01:02:24;56785.91;;;-144.48;100.00
68758;BME280;55747;51.998;4.466;2023-04-02T01:07:23;56769.38;;;-144.48;100.00
68758;BME280;55747;51.998;4.466;2023-04-02T01:10:06;56759.03;;;-144.48;100.00
68758;BME280;55747;51.998;4.466;2023-04-02T01:15:10;56750.75;;;-144.48;100.00
68758;BME280;55747;51.998;4.466;2023-04-02T01:25:35;56767.31;;;-144.48;100.00
68758;BME280;55747;51.998;4.466;2023-04-02T01:30:30;56800.38;;;-144.48;100.00
68758;BME280;55747;51.998;4.466;2023-04-02T01:32:57;56802.44;;;-144.48;100.00
68758;BME280;55747;51.998;4.466;2023-04-02T01:35:22;56781.78;;;-144.48;100.00
68758;BME280;55747;51.998;4.466;2023-04-02T01:38:00;56785.91;;;-144.48;100.00
68758;BME280;55747;51.998;4.466;2023-04-02T01:45:31;56769.38;;;-144.48;100.00
68758;BME280;55747;51.998;4.466;2023-04-02T01:47:59;56775.56;;;-144.48;100.00
68758;BME280;55747;51.998;4.466;2023-04-02T01:50:29;56783.84;;;-144.48;100.00
68758;BME280;55747;51.998;4.466;2023-04-02T01:52:56;56792.09;;;-144.48;100.00
68758;BME280;55747;51.998;4.466;2023-04-02T01:55:36;56748.69;;;-144.48;100.00
68758;BME280;55747;51.998;4.466;2023-04-02T01:58:02;56790.03;;;-144.48;100.00
68758;BME280;55747;51.998;4.466;2023-04-02T02:00:28;56781.78;;;-144.48;100.00
68758;BME280;55747;51.998;4.466;2023-04-02T02:02:58;56759.03;;;-144.48;100.00
68758;BME280;55747;51.998;4.466;2023-04-02T02:05:23;56740.41;;;-144.48;100.00
68758;BME280;55747;51.998;4.466;2023-04-02T02:07:50;56771.44;;;-144.48;100.00
68758;BME280;55747;51.998;4.466;2023-04-02T02:10:17;56754.91;;;-144.48;100.00
68758;BME280;55747;51.998;4.466;2023-04-02T02:12:45;56781.78;;;-144.48;100.00
68758;BME280;55747;51.998;4.466;2023-04-02T02:15:15;56777.63;;;-144.48;100.00
68758;BME280;55747;51.998;4.466;2023-04-02T02:17:41;56781.78;;;-144.48;100.00
68758;BME280;55747;51.998;4.466;2023-04-02T02:20:07;56808.66;;;-144.48;100.00
68758;BME280;55747;51.998;4.466;2023-04-02T02:22:36;56767.31;;;-144.48;100.00
68758;BME280;55747;51.998;4.466;2023-04-02T02:25:13;56785.91;;;-144.48;100.00
68758;BME280;55747;51.998;4.466;2023-04-02T02:30:15;56798.31;;;-144.48;100.00
68758;BME280;55747;51.998;4.466;2023-04-02T02:32:45;56767.31;;;-144.48;100.00
68758;BME280;55747;51.998;4.466;2023-04-02T02:35:17;56746.63;;;-144.48;100.00
68758;BME280;55747;51.998;4.466;2023-04-02T02:37:45;56785.91;;;-144.48;100.00
68758;BME280;55747;51.998;4.466;2023-04-02T02:40:15;56763.16;;;-144.48;100.00
68758;BME280;55747;51.998;4.466;2023-04-02T02:42:45;56779.72;;;-144.48;100.00
68758;BME280;55747;51.998;4.466;2023-04-02T02:45:14;56792.09;;;-144.48;100.00
68758;BME280;55747;51.998;4.466;2023-04-02T02:47:41;56742.50;;;-144.48;100.00
68758;BME280;55747;51.998;4.466;2023-04-02T02:50:12;56806.59;;;-144.48;100.00
68758;BME280;55747;51.998;4.466;2023-04-02T02:52:38;56744.56;;;-144.48;100.00
68758;BME280;55747;51.998;4.466;2023-04-02T02:55:12;56769.38;;;-144.48;100.00
68758;BME280;55747;51.998;4.466;2023-04-02T02:57:48;56783.84;;;-144.48;100.00
68758;BME280;55747;51.998;4.466;2023-04-02T03:00:16;56792.09;;;-144.48;100.00
68758;BME280;55747;51.998;4.466;2023-04-02T03:02:43;56794.19;;;-144.48;100.00
68758;BME280;55747;51.998;4.466;2023-04-02T03:05:09;56769.38;;;-144.48;100.00
68758;BME280;55747;51.998;4.466;2023-04-02T03:07:39;56777.63;;;-144.48;100.00
68758;BME280;55747;51.998;4.466;2023-04-02T03:10:09;56779.72;;;-144.48;100.00
68758;BME280;55747;51.998;4.466;2023-04-02T03:15:11;56767.31;;;-144.48;100.00
68758;BME280;55747;51.998;4.466;2023-04-02T03:17:47;56761.09;;;-144.48;100.00
68758;BME280;55747;51.998;4.466;2023-04-02T03:22:50;56740.41;;;-144.48;100.00
68758;BME280;55747;51.998;4.466;2023-04-02T03:28:00;56756.97;;;-144.48;100.00
68758;BME280;55747;51.998;4.466;2023-04-02T03:32:53;56781.78;;;-144.48;100.00
68758;BME280;55747;51.998;4.466;2023-04-02T03:35:23;56787.97;;;-144.48;100.00
68758;BME280;55747;51.998;4.466;2023-04-02T03:37:57;56763.16;;;-144.48;100.00
68758;BME280;55747;51.998;4.466;2023-04-02T03:40:25;56779.72;;;-144.48;100.00
68758;BME280;55747;51.998;4.466;2023-04-02T03:42:59;56792.09;;;-144.48;100.00
68758;BME280;55747;51.998;4.466;2023-04-02T03:45:30;56752.81;;;-144.48;100.00
68758;BME280;55747;51.998;4.466;2023-04-02T03:47:58;56754.91;;;-144.48;100.00
68758;BME280;55747;51.998;4.466;2023-04-02T03:50:27;56775.56;;;-144.48;100.00
68758;BME280;55747;51.998;4.466;2023-04-02T03:52:56;56759.03;;;-144.48;100.00
68758;BME280;55747;51.998;4.466;2023-04-02T03:55:23;56748.69;;;-144.48;100.00
68758;BME280;55747;51.998;4.466;2023-04-02T03:58:03;56819.00;;;-144.48;100.00
68758;BME280;55747;51.998;4.466;2023-04-02T04:00:34;56804.50;;;-144.48;100.00
68758;BME280;55747;51.998;4.466;2023-04-02T04:03:19;56748.69;;;-144.48;100.00
68758;BME280;55747;51.998;4.466;2023-04-02T04:05:49;56773.50;;;-144.48;100.00
68758;BME280;55747;51.998;4.466;2023-04-02T04:08:20;56769.38;;;-144.48;100.00
68758;BME280;55747;51.998;4.466;2023-04-02T04:10:50;56730.09;;;-144.48;100.00
68758;BME280;55747;51.998;4.466;2023-04-02T04:13:18;56740.41;;;-144.48;100.00
68758;BME280;55747;51.998;4.466;2023-04-02T04:15:53;56759.03;;;-144.48;100.00
68758;BME280;55747;51.998;4.466;2023-04-02T04:18:58;56746.63;;;-144.48;100.00
68758;BME280;55747;51.998;4.466;2023-04-02T04:21:21;56783.84;;;-144.48;100.00
68758;BME280;55747;51.998;4.466;2023-04-02T04:23:54;56812.78;;;-144.48;100.00
68758;BME280;55747;51.998;4.466;2023-04-02T04:26:25;56773.50;;;-144.48;100.00
68758;BME280;55747;51.998;4.466;2023-04-02T04:31:45;56752.81;;;-144.48;100.00
68758;BME280;55747;51.998;4.466;2023-04-02T04:34:28;56771.44;;;-144.48;100.00
68758;BME280;55747;51.998;4.466;2023-04-02T04:36:57;56794.19;;;-144.48;100.00
68758;BME280;55747;51.998;4.466;2023-04-02T04:42:16;56765.22;;;-144.48;100.00
68758;BME280;55747;51.998;4.466;2023-04-02T04:44:54;56769.38;;;-144.48;100.00
68758;BME280;55747;51.998;4.466;2023-04-02T04:47:27;56796.25;;;-144.48;100.00
68758;BME280;55747;51.998;4.466;2023-04-02T04:49:57;56775.56;;;-144.48;100.00
68758;BME280;55747;51.998;4.466;2023-04-02T04:52:25;56804.50;;;-144.48;100.00
68758;BME280;55747;51.998;4.466;2023-04-02T04:54:56;56792.09;;;-144.48;100.00
68758;BME280;55747;51.998;4.466;2023-04-02T04:57:28;56734.22;;;-144.48;100.00
68758;BME280;55747;51.998;4.466;2023-04-02T05:00:38;56792.09;;;-144.48;100.00
68758;BME280;55747;51.998;4.466;2023-04-02T05:05:30;56763.16;;;-144.48;100.00
68758;BME280;55747;51.998;4.466;2023-04-02T05:07:58;56771.44;;;-144.48;100.00
68758;BME280;55747;51.998;4.466;2023-04-02T05:10:39;56765.22;;;-144.48;100.00
68758;BME280;55747;51.998;4.466;2023-04-02T05:13:09;56759.03;;;-144.48;100.00
68758;BME280;55747;51.998;4.466;2023-04-02T05:15:42;56790.03;;;-144.48;100.00
68758;BME280;55747;51.998;4.466;2023-04-02T05:23:26;56779.72;;;-144.48;100.00
68758;BME280;55747;51.998;4.466;2023-04-02T05:26:09;56792.09;;;-144.48;100.00
68758;BME280;55747;51.998;4.466;2023-04-02T05:33:47;56769.38;;;-144.48;100.00
68758;BME280;55747;51.998;4.466;2023-04-02T05:36:46;56740.41;;;-144.48;100.00
68758;BME280;55747;51.998;4.466;2023-04-02T05:39:08;56771.44;;;-144.48;100.00
68758;BME280;55747;51.998;4.466;2023-04-02T05:41:44;56804.50;;;-144.48;100.00
68758;BME280;55747;51.998;4.466;2023-04-02T05:44:11;56761.09;;;-144.48;100.00
68758;BME280;55747;51.998;4.466;2023-04-02T05:46:51;56775.56;;;-144.48;100.00
68758;BME280;55747;51.998;4.466;2023-04-02T05:49:41;56744.56;;;-144.48;100.00
68758;BME280;55747;51.998;4.466;2023-04-02T05:52:03;56730.09;;;-144.48;100.00
68758;BME280;55747;51.998;4.466;2023-04-02T05:54:33;56769.38;;;-144.48;100.00
68758;BME280;55747;51.998;4.466;2023-04-02T05:57:09;56763.16;;;-144.48;100.00
68758;BME280;55747;51.998;4.466;2023-04-02T06:02:23;56750.75;;;-144.48;100.00
68758;BME280;55747;51.998;4.466;2023-04-02T06:04:55;56787.97;;;-144.48;100.00
68758;BME280;55747;51.998;4.466;2023-04-02T06:07:23;56769.38;;;-144.48;100.00
68758;BME280;55747;51.998;4.466;2023-04-02T06:10:04;56738.34;;;-144.48;100.00
68758;BME280;55747;51.998;4.466;2023-04-02T06:12:35;56779.72;;;-144.48;100.00
68758;BME280;55747;51.998;4.466;2023-04-02T06:15:02;56781.78;;;-144.48;100.00
68758;BME280;55747;51.998;4.466;2023-04-02T06:17:31;56765.22;;;-144.48;100.00
68758;BME280;55747;51.998;4.466;2023-04-02T06:19:58;56703.19;;;-144.48;100.00
68758;BME280;55747;51.998;4.466;2023-04-02T06:22:29;56775.56;;;-144.48;100.00
68758;BME280;55747;51.998;4.466;2023-04-02T06:24:57;56771.44;;;-144.48;100.00
68758;BME280;55747;51.998;4.466;2023-04-02T06:27:24;56771.44;;;-144.48;100.00
68758;BME280;55747;51.998;4.466;2023-04-02T06:29:50;56773.50;;;-144.48;100.00
68758;BME280;55747;51.998;4.466;2023-04-02T06:32:17;56759.03;;;-144.48;100.00
68758;BME280;55747;51.998;4.466;2023-04-02T06:34:44;56750.75;;;-144.48;100.00
68758;BME280;55747;51.998;4.466;2023-04-02T06:37:52;56738.34;;;-144.48;100.00
68758;BME280;55747;51.998;4.466;2023-04-02T06:39:58;56748.69;;;-144.48;100.00
68758;BME280;55747;51.998;4.466;2023-04-02T06:44:49;56777.63;;;-144.48;100.00
68758;BME280;55747;51.998;4.466;2023-04-02T06:47:36;56771.44;;;-144.48;100.00
68758;BME280;55747;51.998;4.466;2023-04-02T06:50:11;56775.56;;;-144.48;100.00
68758;BME280;55747;51.998;4.466;2023-04-02T06:52:45;56744.56;;;-144.48;100.00
68758;BME280;55747;51.998;4.466;2023-04-02T06:57:52;56812.78;;;-144.48;100.00
68758;BME280;55747;51.998;4.466;2023-04-02T07:00:22;56736.28;;;-144.48;100.00
68758;BME280;55747;51.998;4.466;2023-04-02T07:02:48;56734.22;;;-144.48;100.00
68758;BME280;55747;51.998;4.466;2023-04-02T07:05:14;56769.38;;;-144.48;100.00
68758;BME280;55747;51.998;4.466;2023-04-02T07:07:40;56798.31;;;-144.48;100.00
68758;BME280;55747;51.998;4.466;2023-04-02T07:10:05;56732.16;;;-144.48;100.00
68758;BME280;55747;51.998;4.466;2023-04-02T07:12:33;56765.22;;;-144.48;100.00
68758;BME280;55747;51.998;4.466;2023-04-02T07:14:58;56765.22;;;-144.48;100.00
68758;BME280;55747;51.998;4.466;2023-04-02T07:17:23;56775.56;;;-144.48;100.00
68758;BME280;55747;51.998;4.466;2023-04-02T07:19:49;56765.22;;;-144.48;100.00
68758;BME280;55747;51.998;4.466;2023-04-02T07:22:15;56769.38;;;-144.48;100.00
68758;BME280;55747;51.998;4.466;2023-04-02T07:24:41;56773.50;;;-144.48;100.00
68758;BME280;55747;51.998;4.466;2023-04-02T07:27:08;56752.81;;;-144.48;100.00
68758;BME280;55747;51.998;4.466;2023-04-02T07:29:33;56748.69;;;-144.48;100.00
68758;BME280;55747;51.998;4.466;2023-04-02T07:31:58;56783.84;;;-144.48;100.00
68758;BME280;55747;51.998;4.466;2023-04-02T07:34:23;56752.81;;;-144.48;100.00
68758;BME280;55747;51.998;4.466;2023-04-02T07:36:49;56734.22;;;-144.48;100.00
68758;BME280;55747;51.998;4.466;2023-04-02T07:39:14;56742.50;;;-144.48;100.00
68758;BME280;55747;51.998;4.466;2023-04-02T07:41:56;56738.34;;;-144.48;100.00
68758;BME280;55747;51.998;4.466;2023-04-02T07:44:21;56734.22;;;-144.48;100.00
68758;BME280;55747;51.998;4.466;2023-04-02T07:46:46;56746.63;;;-144.48;100.00
68758;BME280;55747;51.998;4.466;2023-04-02T07:49:12;56761.09;;;-144.48;100.00
68758;BME280;55747;51.998;4.466;2023-04-02T07:51:37;56756.97;;;-144.48;100.00
68758;BME280;55747;51.998;4.466;2023-04-02T07:54:02;56736.28;;;-144.48;100.00
68758;BME280;55747;51.998;4.466;2023-04-02T07:56:28;56748.69;;;-144.48;100.00
68758;BME280;55747;51.998;4.466;2023-04-02T07:58:53;56790.03;;;-144.48;100.00
68758;BME280;55747;51.998;4.466;2023-04-02T08:01:20;56725.94;;;-144.48;100.00
68758;BME280;55747;51.998;4.466;2023-04-02T08:03:47;56756.97;;;-144.48;100.00
68758;BME280;55747;51.998;4.466;2023-04-02T08:06:13;56715.59;;;-144.48;100.00
68758;BME280;55747;51.998;4.466;2023-04-02T08:08:41;56775.56;;;-144.48;100.00
68758;BME280;55747;51.998;4.466;2023-04-02T08:11:06;56752.81;;;-144.48;100.00
68758;BME280;55747;51.998;4.466;2023-04-02T08:13:32;56740.41;;;-144.48;100.00
68758;BME280;55747;51.998;4.466;2023-04-02T08:15:58;56725.94;;;-144.48;100.00
68758;BME280;55747;51.998;4.466;2023-04-02T08:18:23;56765.22;;;-144.48;100.00
68758;BME280;55747;51.998;4.466;2023-04-02T08:20:48;56761.09;;;-144.48;100.00
68758;BME280;55747;51.998;4.466;2023-04-02T08:23:14;56744.56;;;-144.48;100.00
68758;BME280;55747;51.998;4.466;2023-04-02T08:25:41;56711.47;;;-144.48;100.00
68758;BME280;55747;51.998;4.466;2023-04-02T08:28:06;56759.03;;;-144.48;100.00
68758;BME280;55747;51.998;4.466;2023-04-02T08:30:31;56728.00;;;-144.48;100.00
68758;BME280;55747;51.998;4.466;2023-04-02T08:32:57;56756.97;;;-144.48;100.00
68758;BME280;55747;51.998;4.466;2023-04-02T08:35:22;56798.31;;;-144.48;100.00
68758;BME280;55747;51.998;4.466;2023-04-02T08:37:47;56736.28;;;-144.48;100.00
68758;BME280;55747;51.998;4.466;2023-04-02T08:40:30;56796.25;;;-144.48;100.00
68758;BME280;55747;51.998;4.466;2023-04-02T08:43:08;56728.00;;;-144.48;100.00
68758;BME280;55747;51.998;4.466;2023-04-02T08:48:22;56756.97;;;-144.48;100.00
68758;BME280;55747;51.998;4.466;2023-04-02T08:50:48;56754.91;;;-144.48;100.00
68758;BME280;55747;51.998;4.466;2023-04-02T08:53:20;56744.56;;;-144.48;100.00
68758;BME280;55747;51.998;4.466;2023-04-02T08:58:19;56738.34;;;-144.48;100.00
68758;BME280;55747;51.998;4.466;2023-04-02T09:00:47;56767.31;;;-144.48;100.00
68758;BME280;55747;51.998;4.466;2023-04-02T09:03:18;56744.56;;;-144.48;100.00
68758;BME280;55747;51.998;4.466;2023-04-02T09:05:46;56754.91;;;-144.48;100.00
68758;BME280;55747;51.998;4.466;2023-04-02T09:08:21;56742.50;;;-144.48;100.00
68758;BME280;55747;51.998;4.466;2023-04-02T09:13:19;56732.16;;;-144.48;100.00
68758;BME280;55747;51.998;4.466;2023-04-02T09:15:46;56759.03;;;-144.48;100.00
68758;BME280;55747;51.998;4.466;2023-04-02T09:18:12;56738.34;;;-144.48;100.00
68758;BME280;55747;51.998;4.466;2023-04-02T09:20:38;56787.97;;;-144.48;100.00
68758;BME280;55747;51.998;4.466;2023-04-02T09:23:04;56763.16;;;-144.48;91.78
68758;BME280;55747;51.998;4.466;2023-04-02T09:25:31;56736.28;;;-144.48;81.66
68758;BME280;55747;51.998;4.466;2023-04-02T09:28:00;56732.16;;;-144.48;78.91
68758;BME280;55747;51.998;4.466;2023-04-02T09:33:18;56732.16;;;-144.48;83.79
68758;BME280;55747;51.998;4.466;2023-04-02T10:15:59;56697.00;;;-144.48;61.16
68758;BME280;55747;51.998;4.466;2023-04-02T10:21:24;56721.81;;;-144.48;60.19
68758;BME280;55747;51.998;4.466;2023-04-02T10:23:50;56732.16;;;-144.48;60.96
68758;BME280;55747;51.998;4.466;2023-04-02T10:33:35;56705.28;;;-144.48;58.48
68758;BME280;55747;51.998;4.466;2023-04-02T10:40:02;56719.75;;;-144.48;55.68
68758;BME280;55747;51.998;4.466;2023-04-02T10:45:43;56678.41;;;-144.48;56.47
68758;BME280;55747;51.998;4.466;2023-04-02T10:48:16;56725.94;;;-144.48;55.41
68758;BME280;55747;51.998;4.466;2023-04-02T10:51:19;56719.75;;;-144.48;54.67
68758;BME280;55747;51.998;4.466;2023-04-02T10:56:20;56705.28;;;-144.48;51.87
68758;BME280;55747;51.998;4.466;2023-04-02T10:59:32;56705.28;;;-144.48;52.81
68758;BME280;55747;51.998;4.466;2023-04-02T11:04:28;56694.94;;;-144.48;52.82
68758;BME280;55747;51.998;4.466;2023-04-02T11:07:29;56682.53;;;-144.48;53.76
68758;BME280;55747;51.998;4.466;2023-04-02T11:09:47;56715.59;;;-144.48;52.16
68758;BME280;55747;51.998;4.466;2023-04-02T11:12:22;56705.28;;;-144.48;51.83
68758;BME280;55747;51.998;4.466;2023-04-02T11:14:49;56692.88;;;-144.48;50.82
68758;BME280;55747;51.998;4.466;2023-04-02T11:17:18;56703.19;;;-144.48;51.08
68758;BME280;55747;51.998;4.466;2023-04-02T11:19:50;56694.94;;;-144.48;52.36
68758;BME280;55747;51.998;4.466;2023-04-02T11:22:17;56694.94;;;-144.48;51.83
68758;BME280;55747;51.998;4.466;2023-04-02T11:27:42;56699.06;;;-144.48;50.54
68758;BME280;55747;51.998;4.466;2023-04-02T11:30:26;56663.91;;;-144.48;48.41
68758;BME280;55747;51.998;4.466;2023-04-02T11:32:54;56655.66;;;-144.48;48.23
68758;BME280;55747;51.998;4.466;2023-04-02T11:35:42;56715.59;;;-144.48;48.14
68758;BME280;55747;51.998;4.466;2023-04-02T11:40:45;56680.47;;;-144.48;50.29
68758;BME280;55747;51.998;4.466;2023-04-02T11:45:55;56668.06;;;-144.48;48.50
68758;BME280;55747;51.998;4.466;2023-04-02T11:50:46;56692.88;;;-144.48;50.06
68758;BME280;55747;51.998;4.466;2023-04-02T11:55:40;56663.91;;;-144.48;49.37
68758;BME280;55747;51.998;4.466;2023-04-02T11:58:24;56670.13;;;-144.48;47.61
68758;BME280;55747;51.998;4.466;2023-04-02T12:11:38;56663.91;;;-144.48;49.11
68758;BME280;55747;51.998;4.466;2023-04-02T12:16:48;56657.72;;;-144.48;49.59
68758;BME280;55747;51.998;4.466;2023-04-02T12:19:17;56672.19;;;-144.48;50.25
68758;BME280;55747;51.998;4.466;2023-04-02T12:21:44;56678.41;;;-144.48;48.80
68758;BME280;55747;51.998;4.466;2023-04-02T12:24:13;56639.13;;;-144.48;48.27
68758;BME280;55747;51.998;4.466;2023-04-02T12:26:41;56657.72;;;-144.48;47.96
68758;BME280;55747;51.998;4.466;2023-04-02T12:29:43;56674.25;;;-144.48;48.99
68758;BME280;55747;51.998;4.466;2023-04-02T12:32:03;56676.31;;;-144.48;46.89
68758;BME280;55747;51.998;4.466;2023-04-02T12:34:30;56659.78;;;-144.48;47.86
68758;BME280;55747;51.998;4.466;2023-04-02T12:37:00;56678.41;;;-144.48;49.50
68758;BME280;55747;51.998;4.466;2023-04-02T12:39:32;56684.59;;;-144.48;48.36
68758;BME280;55747;51.998;4.466;2023-04-02T12:41:57;56674.25;;;-144.48;49.07
68758;BME280;55747;51.998;4.466;2023-04-02T12:44:24;56645.31;;;-144.48;46.89
68758;BME280;55747;51.998;4.466;2023-04-02T12:46:50;56676.31;;;-144.48;47.91
68758;BME280;55747;51.998;4.466;2023-04-02T12:52:16;56678.41;;;-144.48;47.64
68758;BME280;55747;51.998;4.466;2023-04-02T12:54:49;56678.41;;;-144.48;48.35
68758;BME280;55747;51.998;4.466;2023-04-02T12:57:19;56651.50;;;-144.48;48.33
68758;BME280;55747;51.998;4.466;2023-04-02T12:59:46;56651.50;;;-144.48;47.89
68758;BME280;55747;51.998;4.466;2023-04-02T13:02:18;56616.38;;;-144.48;47.04
68758;BME280;55747;51.998;4.466;2023-04-02T13:04:47;56655.66;;;-144.48;47.08
68758;BME280;55747;51.998;4.466;2023-04-02T13:07:14;56649.44;;;-144.48;47.18
68758;BME280;55747;51.998;4.466;2023-04-02T13:09:42;56620.50;;;-144.48;48.34
68758;BME280;55747;51.998;4.466;2023-04-02T13:12:21;56612.22;;;-144.48;48.27
68758;BME280;55747;51.998;4.466;2023-04-02T13:14:50;56645.31;;;-144.48;47.59
68758;BME280;55747;51.998;4.466;2023-04-02T13:20:25;56651.50;;;-144.48;46.69
68758;BME280;55747;51.998;4.466;2023-04-02T13:22:45;56674.25;;;-144.48;47.86
68758;BME280;55747;51.998;4.466;2023-04-02T13:25:10;56634.97;;;-144.48;46.94
68758;BME280;55747;51.998;4.466;2023-04-02T13:27:36;56647.38;;;-144.48;47.43
68758;BME280;55747;51.998;4.466;2023-04-02T13:30:08;56645.31;;;-144.48;47.40
68758;BME280;55747;51.998;4.466;2023-04-02T13:32:33;56645.31;;;-144.48;48.86
68758;BME280;55747;51.998;4.466;2023-04-02T13:35:01;56645.31;;;-144.48;47.60
68758;BME280;55747;51.998;4.466;2023-04-02T13:37:26;56622.56;;;-144.48;48.37
68758;BME280;55747;51.998;4.466;2023-04-02T13:39:51;56632.91;;;-144.48;48.35
68758;BME280;55747;51.998;4.466;2023-04-02T13:42:16;56628.78;;;-144.48;47.39
68758;BME280;55747;51.998;4.466;2023-04-02T13:44:41;56680.47;;;-144.48;47.97
68758;BME280;55747;51.998;4.466;2023-04-02T13:47:08;56639.13;;;-144.48;47.13
68758;BME280;55747;51.998;4.466;2023-04-02T13:49:37;56628.78;;;-144.48;47.27
68758;BME280;55747;51.998;4.466;2023-04-02T13:52:02;56622.56;;;-144.48;46.37
68758;BME280;55747;51.998;4.466;2023-04-02T13:54:45;56668.06;;;-144.48;46.55
68758;BME280;55747;51.998;4.466;2023-04-02T14:16:17;56606.03;;;-144.48;45.20
68758;BME280;55747;51.998;4.466;2023-04-02T14:18:56;56628.78;;;-144.48;44.67
68758;BME280;55747;51.998;4.466;2023-04-02T14:26:42;56626.72;;;-144.48;43.97
68758;BME280;55747;51.998;4.466;2023-04-02T14:29:14;56649.44;;;-144.48;44.04
68758;BME280;55747;51.998;4.466;2023-04-02T14:34:08;56641.19;;;-144.48;44.41
68758;BME280;55747;51.998;4.466;2023-04-02T14:42:19;56589.50;;;-144.48;46.04
68758;BME280;55747;51.998;4.466;2023-04-02T14:47:36;56628.78;;;-144.48;44.47
68758;BME280;55747;51.998;4.466;2023-04-02T14:50:12;56647.38;;;-144.48;44.99
68758;BME280;55747;51.998;4.466;2023-04-02T14:52:41;56626.72;;;-144.48;44.64
68758;BME280;55747;51.998;4.466;2023-04-02T14:55:12;56618.44;;;-144.48;45.14
68758;BME280;55747;51.998;4.466;2023-04-02T14:57:40;56612.22;;;-144.48;45.07
68758;BME280;55747;51.998;4.466;2023-04-02T15:02:50;56628.78;;;-144.48;44.08
68758;BME280;55747;51.998;4.466;2023-04-02T15:28:56;56622.56;;;-144.48;45.43
68758;BME280;55747;51.998;4.466;2023-04-02T15:31:24;56626.72;;;-144.48;45.37
68758;BME280;55747;51.998;4.466;2023-04-02T15:36:35;56616.38;;;-144.48;45.23
68758;BME280;55747;51.998;4.466;2023-04-02T15:44:33;56589.50;;;-144.48;45.88
68758;BME280;55747;51.998;4.466;2023-04-02T15:47:11;56639.13;;;-144.48;45.90
68758;BME280;55747;51.998;4.466;2023-04-02T15:49:49;56599.81;;;-144.48;46.32
68758;BME280;55747;51.998;4.466;2023-04-02T15:56:45;56647.38;;;-144.48;45.81
68758;BME280;55747;51.998;4.466;2023-04-02T16:01:45;56628.78;;;-144.48;44.92
68758;BME280;55747;51.998;4.466;2023-04-02T16:04:23;56593.63;;;-144.48;46.92
68758;BME280;55747;51.998;4.466;2023-04-02T16:09:44;56610.16;;;-144.48;47.07
68758;BME280;55747;51.998;4.466;2023-04-02T16:12:18;56622.56;;;-144.48;47.46
68758;BME280;55747;51.998;4.466;2023-04-02T16:14:44;56603.97;;;-144.48;47.79
68758;BME280;55747;51.998;4.466;2023-04-02T16:17:23;56659.78;;;-144.48;48.07
68758;BME280;55747;51.998;4.466;2023-04-02T16:19:50;56614.31;;;-144.48;48.05
68758;BME280;55747;51.998;4.466;2023-04-02T16:22:19;56608.09;;;-144.48;49.44
68758;BME280;55747;51.998;4.466;2023-04-02T16:24:47;56624.63;;;-144.48;50.35
68758;BME280;55747;51.998;4.466;2023-04-02T16:27:28;56626.72;;;-144.48;50.86
68758;BME280;55747;51.998;4.466;2023-04-02T16:38:23;56614.31;;;-144.48;48.75
68758;BME280;55747;51.998;4.466;2023-04-02T16:43:44;56616.38;;;-144.48;49.54
68758;BME280;55747;51.998;4.466;2023-04-02T16:46:22;56614.31;;;-144.48;48.92
68758;BME280;55747;51.998;4.466;2023-04-02T17:06:34;56626.72;;;-144.48;51.12
68758;BME280;55747;51.998;4.466;2023-04-02T17:09:17;56614.31;;;-144.48;51.35
68758;BME280;55747;51.998;4.466;2023-04-02T17:11:54;56632.91;;;-144.48;52.33
68758;BME280;55747;51.998;4.466;2023-04-02T17:32:39;56612.22;;;-144.48;54.64
68758;BME280;55747;51.998;4.466;2023-04-02T17:53:17;56639.13;;;-144.48;60.99
68758;BME280;55747;51.998;4.466;2023-04-02T18:13:41;56651.50;;;-144.48;71.66
68758;BME280;55747;51.998;4.466;2023-04-02T18:16:12;56639.13;;;-144.48;72.49
68758;BME280;55747;51.998;4.466;2023-04-02T18:22:31;56641.19;;;-144.48;73.49
68758;BME280;55747;51.998;4.466;2023-04-02T18:48:37;56651.50;;;-144.48;80.48
68758;BME280;55747;51.998;4.466;2023-04-02T19:04:35;56626.72;;;-144.48;84.77
68758;BME280;55747;51.998;4.466;2023-04-02T19:28:40;56599.81;;;-144.48;88.23